createdAt,value
2022-07-27T00:02:20.741Z,6.30
2022-07-27T00:04:48.940Z,5.85
2022-07-27T00:07:17.253Z,6.70
2022-07-27T00:09:45.470Z,6.85
2022-07-27T00:12:13.615Z,5.57
2022-07-27T00:14:42.251Z,5.85
2022-07-27T00:17:11.743Z,7.30
2022-07-27T00:19:39.890Z,7.82
2022-07-27T00:22:08.060Z,6.22
2022-07-27T00:24:36.192Z,5.97
2022-07-27T00:27:04.430Z,5.45
2022-07-27T00:29:32.577Z,5.50
2022-07-27T00:32:00.725Z,6.57
2022-07-27T00:34:30.239Z,4.82
2022-07-27T00:36:58.349Z,6.20
2022-07-27T00:39:26.495Z,4.57
2022-07-27T00:41:54.654Z,4.95
2022-07-27T00:44:26.561Z,6.95
2022-07-27T00:46:54.754Z,6.53
2022-07-27T00:49:23.029Z,9.07
2022-07-27T00:51:52.706Z,4.95
2022-07-27T00:54:21.752Z,4.13
2022-07-27T00:56:50.091Z,5.57
2022-07-27T00:59:18.272Z,7.40
2022-07-27T01:01:46.658Z,4.55
2022-07-27T01:04:14.825Z,4.72
2022-07-27T01:06:43.011Z,3.78
2022-07-27T01:09:30.050Z,8.65
2022-07-27T01:12:00.650Z,4.25
2022-07-27T01:14:28.786Z,5.07
2022-07-27T01:16:57.083Z,3.58
2022-07-27T01:19:25.218Z,4.80
2022-07-27T01:21:54.698Z,4.75
2022-07-27T01:24:22.802Z,4.50
2022-07-27T01:26:51.016Z,5.35
2022-07-27T01:29:19.192Z,3.75
2022-07-27T01:31:47.386Z,5.25
2022-07-27T01:34:15.543Z,3.92
2022-07-27T01:36:45.796Z,4.97
2022-07-27T01:39:15.692Z,3.67
2022-07-27T01:41:43.982Z,2.78
2022-07-27T01:44:12.145Z,4.45
2022-07-27T01:46:40.488Z,4.10
2022-07-27T01:49:08.950Z,3.55
2022-07-27T01:51:37.563Z,4.05
2022-07-27T01:54:05.964Z,5.32
2022-07-27T01:56:35.463Z,4.13
2022-07-27T01:59:03.760Z,2.78
2022-07-27T02:01:31.946Z,4.32
2022-07-27T02:04:00.135Z,5.10
2022-07-27T02:06:28.302Z,5.38
2022-07-27T02:08:56.403Z,4.15
2022-07-27T02:11:42.036Z,6.55
2022-07-27T02:14:11.611Z,4.18
2022-07-27T02:16:39.826Z,4.95
2022-07-27T02:19:08.893Z,4.60
2022-07-27T02:21:39.168Z,5.65
2022-07-27T02:24:08.025Z,3.78
2022-07-27T02:26:36.156Z,5.47
2022-07-27T02:29:05.294Z,4.00
2022-07-27T02:31:34.825Z,4.82
2022-07-27T02:34:02.954Z,3.65
2022-07-27T02:36:31.162Z,2.83
2022-07-27T02:38:59.535Z,3.72
2022-07-27T02:41:27.683Z,3.30
2022-07-27T02:43:55.789Z,3.75
2022-07-27T02:46:24.067Z,3.38
2022-07-27T02:48:53.789Z,3.70
2022-07-27T02:51:21.954Z,4.43
2022-07-27T02:53:50.186Z,2.55
2022-07-27T02:56:18.295Z,2.45
2022-07-27T02:58:47.009Z,3.45
2022-07-27T03:01:16.088Z,3.13
2022-07-27T03:03:44.285Z,2.55
2022-07-27T03:06:13.952Z,5.75
2022-07-27T03:08:42.321Z,2.50
2022-07-27T03:11:10.401Z,3.33
2022-07-27T03:13:38.532Z,2.78
2022-07-27T03:16:07.253Z,3.50
2022-07-27T03:18:35.571Z,4.03
2022-07-27T03:21:03.803Z,2.85
2022-07-27T03:23:33.290Z,3.17
2022-07-27T03:26:01.419Z,4.10
2022-07-27T03:28:29.714Z,3.58
2022-07-27T03:30:57.887Z,3.92
2022-07-27T03:33:26.069Z,3.03
2022-07-27T03:35:54.148Z,2.50
2022-07-27T03:38:23.004Z,4.13
2022-07-27T03:40:52.476Z,4.53
2022-07-27T03:43:20.619Z,5.15
2022-07-27T03:45:48.978Z,2.78
2022-07-27T03:48:17.132Z,2.55
2022-07-27T03:50:45.255Z,3.85
2022-07-27T03:53:13.315Z,2.42
2022-07-27T03:55:41.527Z,2.65
2022-07-27T03:58:10.991Z,3.00
2022-07-27T04:00:39.133Z,2.63
2022-07-27T04:03:07.484Z,2.78
2022-07-27T04:05:36.161Z,6.13
2022-07-27T04:08:04.272Z,2.63
2022-07-27T04:10:32.439Z,6.10
2022-07-27T04:13:00.581Z,3.15
2022-07-27T04:15:30.684Z,4.53
2022-07-27T04:17:58.860Z,3.05
2022-07-27T04:20:27.736Z,2.85
2022-07-27T04:22:56.018Z,2.55
2022-07-27T04:25:24.121Z,2.58
2022-07-27T04:27:54.492Z,3.08
2022-07-27T04:30:23.046Z,2.55
2022-07-27T04:32:52.742Z,2.58
2022-07-27T04:35:25.917Z,1.83
2022-07-27T04:37:59.035Z,3.60
2022-07-27T04:40:32.290Z,2.88
2022-07-27T04:43:00.606Z,1.83
2022-07-27T04:45:28.741Z,4.38
2022-07-27T04:47:58.454Z,3.45
2022-07-27T04:50:26.604Z,3.13
2022-07-27T04:52:59.395Z,3.30
2022-07-27T04:55:27.584Z,3.35
2022-07-27T04:57:55.792Z,3.33
2022-07-27T05:00:24.028Z,3.83
2022-07-27T05:02:52.235Z,5.15
2022-07-27T05:05:21.967Z,2.42
2022-07-27T05:07:50.097Z,2.60
2022-07-27T05:10:20.479Z,2.88
2022-07-27T05:12:49.347Z,3.30
2022-07-27T05:15:17.520Z,3.28
2022-07-27T05:17:45.678Z,4.28
2022-07-27T05:20:14.039Z,1.58
2022-07-27T05:22:43.524Z,2.05
2022-07-27T05:25:11.868Z,3.05
2022-07-27T05:27:53.911Z,2.20
2022-07-27T05:30:23.529Z,3.13
2022-07-27T05:32:51.638Z,2.67
2022-07-27T05:35:20.344Z,2.55
2022-07-27T05:37:49.853Z,2.78
2022-07-27T05:40:17.996Z,4.18
2022-07-27T05:42:46.111Z,2.25
2022-07-27T05:45:14.322Z,1.73
2022-07-27T05:47:42.965Z,3.33
2022-07-27T05:50:11.367Z,3.13
2022-07-27T05:52:39.518Z,2.75
2022-07-27T05:55:09.952Z,2.78
2022-07-27T05:57:38.192Z,2.17
2022-07-27T06:00:07.716Z,2.75
2022-07-27T06:02:41.881Z,2.15
2022-07-27T06:05:15.232Z,1.92
2022-07-27T06:08:03.594Z,4.78
2022-07-27T06:10:34.154Z,4.57
2022-07-27T06:13:02.537Z,5.35
2022-07-27T06:15:30.690Z,2.45
2022-07-27T06:17:58.765Z,3.35
2022-07-27T06:20:27.240Z,4.95
2022-07-27T06:22:56.421Z,4.38
2022-07-27T06:25:34.132Z,6.32
2022-07-27T06:28:05.572Z,1.92
2022-07-27T06:30:33.747Z,8.63
2022-07-27T06:33:04.235Z,2.40
2022-07-27T06:35:33.086Z,6.43
2022-07-27T06:38:02.321Z,3.47
2022-07-27T06:40:32.182Z,4.22
2022-07-27T06:43:00.382Z,1.83
2022-07-27T06:45:30.173Z,3.75
2022-07-27T06:47:58.284Z,4.72
2022-07-27T06:50:27.009Z,5.50
2022-07-27T06:52:55.163Z,3.25
2022-07-27T06:55:23.426Z,6.78
2022-07-27T06:57:51.611Z,8.30
2022-07-27T07:00:19.780Z,3.50
2022-07-27T07:02:58.688Z,2.58
2022-07-27T07:05:26.817Z,4.63
2022-07-27T07:07:55.334Z,6.97
2022-07-27T07:10:23.852Z,9.80
2022-07-27T07:12:55.593Z,6.93
2022-07-27T07:15:24.839Z,18.45
2022-07-27T07:17:53.180Z,27.10
2022-07-27T07:20:23.034Z,30.55
2022-07-27T07:22:51.437Z,59.42
2022-07-27T07:25:19.587Z,37.25
2022-07-27T07:27:47.750Z,62.25
2022-07-27T07:30:16.082Z,42.35
2022-07-27T07:32:45.823Z,31.75
2022-07-27T07:35:25.575Z,36.00
2022-07-27T07:37:55.190Z,42.90
2022-07-27T07:43:12.177Z,33.13
2022-07-27T07:45:51.017Z,27.13
2022-07-27T07:48:20.991Z,24.92
2022-07-27T07:50:52.474Z,28.58
2022-07-27T07:53:23.674Z,24.02
2022-07-27T07:55:52.096Z,24.20
2022-07-27T07:58:20.324Z,25.52
2022-07-27T08:00:48.542Z,20.13
2022-07-27T08:03:16.784Z,16.38
2022-07-27T08:05:44.896Z,15.90
2022-07-27T08:08:13.135Z,19.58
2022-07-27T08:10:42.677Z,12.38
2022-07-27T08:13:10.821Z,16.38
2022-07-27T08:15:38.976Z,11.98
2022-07-27T08:18:07.332Z,14.30
2022-07-27T08:20:35.529Z,8.63
2022-07-27T08:23:03.819Z,9.07
2022-07-27T08:25:32.288Z,13.60
2022-07-27T08:28:02.891Z,8.88
2022-07-27T08:30:32.376Z,7.68
2022-07-27T08:33:02.089Z,7.72
2022-07-27T08:35:30.722Z,8.88
2022-07-27T08:37:58.864Z,7.88
2022-07-27T08:40:44.952Z,6.40
2022-07-27T08:43:23.833Z,7.75
2022-07-27T08:45:54.767Z,5.97
2022-07-27T08:48:23.130Z,7.25
2022-07-27T08:50:51.346Z,6.38
2022-07-27T08:53:19.547Z,4.32
2022-07-27T08:55:48.448Z,7.93
2022-07-27T08:58:18.459Z,9.20
2022-07-27T09:00:48.092Z,7.55
2022-07-27T09:03:20.158Z,7.97
2022-07-27T09:05:49.904Z,8.57
2022-07-27T09:08:21.637Z,4.53
2022-07-27T09:10:50.472Z,9.10
2022-07-27T09:13:24.739Z,3.53
2022-07-27T09:18:42.434Z,9.35
2022-07-27T09:21:11.958Z,6.80
2022-07-27T09:23:40.373Z,16.10
2022-07-27T09:26:30.290Z,13.07
2022-07-27T09:29:02.159Z,21.90
2022-07-27T09:31:30.433Z,24.17
2022-07-27T09:34:00.419Z,20.83
2022-07-27T09:36:29.251Z,19.17
2022-07-27T09:39:02.597Z,16.15
2022-07-27T09:41:40.452Z,21.73
2022-07-27T09:46:58.583Z,18.55
2022-07-27T09:49:31.745Z,16.85
2022-07-27T09:52:01.952Z,12.05
2022-07-27T09:54:43.340Z,14.40
2022-07-27T09:57:11.741Z,18.25
2022-07-27T09:59:41.321Z,13.38
2022-07-27T10:02:09.669Z,10.60
2022-07-27T10:04:37.962Z,10.85
2022-07-27T10:07:09.503Z,8.05
2022-07-27T10:09:41.352Z,9.88
2022-07-27T10:12:10.325Z,10.57
2022-07-27T10:14:39.901Z,9.82
2022-07-27T10:17:08.092Z,10.75
2022-07-27T10:19:40.661Z,9.57
2022-07-27T10:22:08.811Z,8.02
2022-07-27T10:24:37.533Z,13.05
2022-07-27T10:27:21.095Z,12.20
2022-07-27T10:29:50.859Z,10.93
2022-07-27T10:32:24.822Z,14.32
2022-07-27T10:34:52.979Z,6.03
2022-07-27T10:37:26.145Z,8.82
2022-07-27T10:40:16.021Z,5.88
2022-07-27T10:42:44.281Z,6.90
2022-07-27T10:45:14.216Z,8.45
2022-07-27T10:47:44.641Z,7.68
2022-07-27T10:50:27.090Z,9.55
2022-07-27T10:52:56.184Z,6.38
2022-07-27T10:55:49.259Z,5.65
2022-07-27T10:59:00.143Z,6.57
2022-07-27T11:01:29.651Z,8.93
2022-07-27T11:03:57.794Z,6.22
2022-07-27T11:06:41.947Z,6.78
2022-07-27T11:10:02.391Z,6.65
2022-07-27T11:12:11.574Z,6.30
2022-07-27T11:14:49.372Z,5.35
2022-07-27T11:20:09.058Z,6.57
2022-07-27T11:25:26.307Z,5.57
2022-07-27T11:27:54.473Z,5.65
2022-07-27T11:30:23.836Z,4.90
2022-07-27T11:32:53.661Z,3.90
2022-07-27T11:35:21.922Z,6.78
2022-07-27T11:38:03.293Z,6.50
2022-07-27T11:43:36.829Z,8.30
2022-07-27T11:46:15.509Z,5.10
2022-07-27T11:49:06.788Z,4.35
2022-07-27T11:51:43.616Z,4.72
2022-07-27T11:54:15.083Z,4.35
2022-07-27T11:56:46.485Z,4.65
2022-07-27T11:59:17.371Z,6.20
2022-07-27T12:01:47.886Z,5.90
2022-07-27T12:04:20.122Z,4.30
2022-07-27T12:06:55.771Z,2.47
2022-07-27T12:09:24.078Z,3.67
2022-07-27T12:12:02.616Z,5.85
2022-07-27T12:14:36.362Z,5.40
2022-07-27T12:17:15.315Z,6.07
2022-07-27T12:19:50.462Z,4.00
2022-07-27T12:22:24.505Z,4.78
2022-07-27T12:24:52.726Z,5.40
2022-07-27T12:27:21.939Z,2.85
2022-07-27T12:30:15.407Z,4.07
2022-07-27T12:32:44.453Z,6.55
2022-07-27T12:35:22.775Z,3.83
2022-07-27T12:37:57.720Z,3.15
2022-07-27T12:40:27.270Z,3.40
2022-07-27T12:42:59.849Z,5.05
2022-07-27T12:45:31.873Z,3.58
2022-07-27T12:48:07.654Z,5.15
2022-07-27T12:50:37.265Z,3.72
2022-07-27T12:53:05.467Z,2.85
2022-07-27T12:55:34.506Z,6.97
2022-07-27T12:58:02.637Z,3.55
2022-07-27T13:00:34.068Z,3.47
2022-07-27T13:03:03.051Z,3.40
2022-07-27T13:05:31.570Z,3.00
2022-07-27T13:08:01.089Z,7.30
2022-07-27T13:10:29.280Z,5.75
2022-07-27T13:12:57.538Z,5.90
2022-07-27T13:15:25.822Z,2.55
2022-07-27T13:17:53.997Z,3.80
2022-07-27T13:20:22.262Z,5.30
2022-07-27T13:22:50.468Z,3.17
2022-07-27T13:25:20.041Z,4.40
2022-07-27T13:27:48.634Z,5.05
2022-07-27T13:30:17.542Z,4.70
2022-07-27T13:32:46.674Z,4.22
2022-07-27T13:35:16.649Z,5.63
2022-07-27T13:37:45.273Z,3.45
2022-07-27T13:40:13.695Z,2.33
2022-07-27T13:42:56.333Z,7.78
2022-07-27T13:45:24.664Z,4.93
2022-07-27T13:47:53.865Z,3.30
2022-07-27T13:50:22.271Z,5.03
2022-07-27T13:52:50.545Z,2.60
2022-07-27T13:55:19.047Z,4.88
2022-07-27T13:57:47.754Z,2.75
2022-07-27T14:00:17.825Z,4.75
2022-07-27T14:02:46.162Z,5.07
2022-07-27T14:05:14.829Z,5.20
2022-07-27T14:07:44.440Z,3.92
2022-07-27T14:10:30.866Z,5.30
2022-07-27T14:13:07.259Z,5.22
2022-07-27T14:15:53.381Z,4.22
2022-07-27T14:18:25.013Z,8.25
2022-07-27T14:20:53.419Z,4.78
2022-07-27T14:23:21.536Z,3.53
2022-07-27T14:25:49.816Z,6.03
2022-07-27T14:28:18.013Z,5.35
2022-07-27T14:30:47.723Z,3.35
2022-07-27T14:33:16.238Z,5.10
2022-07-27T14:35:44.591Z,3.25
2022-07-27T14:38:12.880Z,3.20
2022-07-27T14:40:41.315Z,3.38
2022-07-27T14:43:09.887Z,4.18
2022-07-27T14:45:44.468Z,3.35
2022-07-27T14:48:25.049Z,3.42
2022-07-27T14:51:01.191Z,6.35
2022-07-27T14:53:29.439Z,11.15
2022-07-27T14:55:57.599Z,10.25
2022-07-27T14:58:25.796Z,10.25
2022-07-27T15:00:54.435Z,3.80
2022-07-27T15:03:24.171Z,3.95
2022-07-27T15:05:52.322Z,5.07
2022-07-27T15:08:20.574Z,5.45
2022-07-27T15:10:49.103Z,6.63
2022-07-27T15:13:17.805Z,6.15
2022-07-27T15:15:48.766Z,3.35
2022-07-27T15:18:19.352Z,5.20
2022-07-27T15:20:49.079Z,6.50
2022-07-27T15:23:17.427Z,4.18
2022-07-27T15:25:45.729Z,8.68
2022-07-27T15:28:13.980Z,5.10
2022-07-27T15:30:42.162Z,3.13
2022-07-27T15:33:10.442Z,5.38
2022-07-27T15:35:40.658Z,3.60
2022-07-27T15:38:10.473Z,5.25
2022-07-27T15:40:38.868Z,12.25
2022-07-27T15:43:08.250Z,5.00
2022-07-27T15:45:38.670Z,4.28
2022-07-27T15:48:08.392Z,5.20
2022-07-27T15:50:36.609Z,5.35
2022-07-27T15:53:04.788Z,3.67
2022-07-27T15:55:34.280Z,4.55
2022-07-27T15:58:03.442Z,3.72
2022-07-27T16:00:36.897Z,5.47
2022-07-27T16:03:07.027Z,3.45
2022-07-27T16:05:35.667Z,3.95
2022-07-27T16:08:03.786Z,2.92
2022-07-27T16:10:33.416Z,4.45
2022-07-27T16:13:01.605Z,4.40
2022-07-27T16:15:43.965Z,5.93
2022-07-27T16:18:14.232Z,3.85
2022-07-27T16:20:42.489Z,3.78
2022-07-27T16:23:17.696Z,3.47
2022-07-27T16:26:08.094Z,3.00
2022-07-27T16:28:38.703Z,3.65
2022-07-27T16:31:07.893Z,3.33
2022-07-27T16:33:36.282Z,3.35
2022-07-27T16:36:05.479Z,5.07
2022-07-27T16:38:33.828Z,2.95
2022-07-27T16:41:06.803Z,3.63
2022-07-27T16:43:38.693Z,2.88
2022-07-27T16:46:08.629Z,3.30
2022-07-27T16:48:42.209Z,6.45
2022-07-27T16:51:12.889Z,3.67
2022-07-27T16:53:42.305Z,4.75
2022-07-27T16:56:12.338Z,5.35
2022-07-27T16:58:40.630Z,3.42
2022-07-27T17:01:09.082Z,2.92
2022-07-27T17:03:37.592Z,6.45
2022-07-27T17:06:07.183Z,2.88
2022-07-27T17:08:36.370Z,2.97
2022-07-27T17:11:06.110Z,4.53
2022-07-27T17:13:35.998Z,4.32
2022-07-27T17:16:04.599Z,4.70
2022-07-27T17:18:38.909Z,6.65
2022-07-27T17:21:09.377Z,4.40
2022-07-27T17:23:39.738Z,4.28
2022-07-27T17:26:09.092Z,4.93
2022-07-27T17:28:40.307Z,9.02
2022-07-27T17:31:09.917Z,3.58
2022-07-27T17:33:38.322Z,5.38
2022-07-27T17:36:15.044Z,7.57
2022-07-27T17:38:44.215Z,4.68
2022-07-27T17:41:12.675Z,3.78
2022-07-27T17:43:42.337Z,2.72
2022-07-27T17:46:11.409Z,3.85
2022-07-27T17:48:40.138Z,3.50
2022-07-27T17:51:08.812Z,4.10
2022-07-27T17:53:36.948Z,6.35
2022-07-27T17:56:05.576Z,4.85
2022-07-27T17:58:33.808Z,7.35
2022-07-27T18:01:03.306Z,4.40
2022-07-27T18:03:33.459Z,6.32
2022-07-27T18:06:01.826Z,4.90
2022-07-27T18:08:30.044Z,6.05
2022-07-27T18:10:58.832Z,14.35
2022-07-27T18:13:39.618Z,4.68
2022-07-27T18:16:12.262Z,4.72
2022-07-27T18:18:41.259Z,7.30
2022-07-27T18:21:10.563Z,4.68
2022-07-27T18:23:38.882Z,4.75
2022-07-27T18:26:07.304Z,6.25
2022-07-27T18:28:39.491Z,5.28
2022-07-27T18:31:09.733Z,5.07
2022-07-27T18:33:45.646Z,3.38
2022-07-27T18:36:14.074Z,5.38
2022-07-27T18:38:42.488Z,6.40
2022-07-27T18:41:10.717Z,5.18
2022-07-27T18:43:39.106Z,5.10
2022-07-27T18:46:07.812Z,5.15
2022-07-27T18:48:36.490Z,5.43
2022-07-27T18:51:06.332Z,4.75
2022-07-27T18:53:35.289Z,5.13
2022-07-27T18:56:03.448Z,4.97
2022-07-27T18:58:31.609Z,4.13
2022-07-27T19:01:00.249Z,4.97
2022-07-27T19:03:28.860Z,4.03
2022-07-27T19:05:57.083Z,4.90
2022-07-27T19:08:26.570Z,5.60
2022-07-27T19:10:54.742Z,5.53
2022-07-27T19:13:23.013Z,6.20
2022-07-27T19:15:51.212Z,4.00
2022-07-27T19:18:19.458Z,6.45
2022-07-27T19:20:47.991Z,3.72
2022-07-27T19:23:16.199Z,5.50
2022-07-27T19:25:46.218Z,4.85
2022-07-27T19:28:16.520Z,5.20
2022-07-27T19:30:45.362Z,8.27
2022-07-27T19:33:13.802Z,6.75
2022-07-27T19:35:42.036Z,4.50
2022-07-27T19:38:10.673Z,3.95
2022-07-27T19:40:44.727Z,6.78
2022-07-27T19:43:15.498Z,4.28
2022-07-27T19:45:43.967Z,5.22
2022-07-27T19:48:13.443Z,5.72
2022-07-27T19:50:41.715Z,5.63
2022-07-27T19:53:10.100Z,6.15
2022-07-27T19:55:39.470Z,4.95
2022-07-27T19:58:07.720Z,4.90
2022-07-27T20:00:37.345Z,4.07
2022-07-27T20:03:05.887Z,3.90
2022-07-27T20:05:34.305Z,6.07
2022-07-27T20:08:03.177Z,5.45
2022-07-27T20:10:31.741Z,7.15
2022-07-27T20:13:00.080Z,9.85
2022-07-27T20:15:28.416Z,7.13
2022-07-27T20:17:58.262Z,5.65
2022-07-27T20:20:26.548Z,4.68
2022-07-27T20:22:54.694Z,5.35
2022-07-27T20:25:22.928Z,4.88
2022-07-27T20:27:51.228Z,5.20
2022-07-27T20:30:20.111Z,4.00
2022-07-27T20:32:48.520Z,3.25
2022-07-27T20:35:18.608Z,6.63
2022-07-27T20:37:47.391Z,3.42
2022-07-27T20:40:15.865Z,5.20
2022-07-27T20:42:44.298Z,5.57
2022-07-27T20:45:14.516Z,4.05
2022-07-27T20:47:43.126Z,3.53
2022-07-27T20:50:12.932Z,4.40
2022-07-27T20:52:42.593Z,5.90
2022-07-27T20:55:11.036Z,3.03
2022-07-27T20:57:39.398Z,5.80
2022-07-27T21:00:08.653Z,6.95
2022-07-27T21:02:37.009Z,5.28
2022-07-27T21:05:05.897Z,7.32
2022-07-27T21:07:34.527Z,10.73
2022-07-27T21:10:04.560Z,10.80
2022-07-27T21:12:32.720Z,11.77
2022-07-27T21:15:01.125Z,9.90
2022-07-27T21:17:29.329Z,23.27
2022-07-27T21:19:57.440Z,12.75
2022-07-27T21:22:25.643Z,9.13
2022-07-27T21:24:53.954Z,8.88
2022-07-27T21:27:23.889Z,7.78
2022-07-27T21:29:52.790Z,4.32
2022-07-27T21:32:20.961Z,9.50
2022-07-27T21:34:49.179Z,5.45
2022-07-27T21:37:17.454Z,8.70
2022-07-27T21:39:46.186Z,4.15
2022-07-27T21:42:14.577Z,5.00
2022-07-27T21:44:44.101Z,7.45
2022-07-27T21:47:14.194Z,5.95
2022-07-27T21:49:42.889Z,6.43
2022-07-27T21:52:11.288Z,9.40
2022-07-27T21:54:39.832Z,9.10
2022-07-27T21:57:08.165Z,10.68
2022-07-27T21:59:36.352Z,4.53
2022-07-27T22:02:05.868Z,10.95
2022-07-27T22:04:34.134Z,6.93
2022-07-27T22:07:02.344Z,5.47
2022-07-27T22:09:30.604Z,5.38
2022-07-27T22:11:58.754Z,7.75
2022-07-27T22:14:26.905Z,4.70
2022-07-27T22:16:55.142Z,4.20
2022-07-27T22:19:24.746Z,5.28
2022-07-27T22:21:52.935Z,5.65
2022-07-27T22:24:21.064Z,5.65
2022-07-27T22:26:49.914Z,4.93
2022-07-27T22:29:18.039Z,4.97
2022-07-27T22:31:46.248Z,5.43
2022-07-27T22:34:14.815Z,7.90
2022-07-27T22:36:45.003Z,5.43
2022-07-27T22:39:13.236Z,3.92
2022-07-27T22:41:41.480Z,4.75
2022-07-27T22:44:09.693Z,4.80
2022-07-27T22:46:37.959Z,5.28
2022-07-27T22:49:06.131Z,4.03
2022-07-27T22:51:48.798Z,5.20
2022-07-27T22:54:19.664Z,6.20
2022-07-27T22:56:47.805Z,4.63
2022-07-27T22:59:15.974Z,7.03
2022-07-27T23:01:47.032Z,3.90
2022-07-27T23:04:16.695Z,3.33
2022-07-27T23:06:45.334Z,3.97
2022-07-27T23:09:13.464Z,6.25
2022-07-27T23:11:42.983Z,2.92
2022-07-27T23:14:11.592Z,6.13
2022-07-27T23:16:40.022Z,3.78
2022-07-27T23:19:08.182Z,4.72
2022-07-27T23:21:37.449Z,6.20
2022-07-27T23:24:05.876Z,3.40
2022-07-27T23:26:34.043Z,3.88
2022-07-27T23:29:03.721Z,4.43
2022-07-27T23:31:31.951Z,5.80
2022-07-27T23:34:00.470Z,5.32
2022-07-27T23:36:28.586Z,4.00
2022-07-27T23:38:56.725Z,4.35
2022-07-27T23:41:24.854Z,6.60
2022-07-27T23:43:52.951Z,3.55
2022-07-27T23:46:22.508Z,2.47
2022-07-27T23:48:50.725Z,3.70
2022-07-27T23:51:19.112Z,4.53
2022-07-27T23:53:47.579Z,6.97
2022-07-27T23:56:15.838Z,3.60
2022-07-27T23:58:44.904Z,2.97
